sensor_id;sensor_type;location;lat;lon;timestamp;pressure;altitude;pressure_sealevel;temperature;humidity
15308;BME280;7755;52.208;6.964;2024-02-26T00:02:15;99692.19;;;4.37;100.00
15308;BME280;7755;52.208;6.964;2024-02-26T00:06:54;99690.09;;;4.39;100.00
15308;BME280;7755;52.208;6.964;2024-02-26T00:11:32;99686.56;;;4.38;100.00
15308;BME280;7755;52.208;6.964;2024-02-26T00:16:10;99678.50;;;4.38;100.00
15308;BME280;7755;52.208;6.964;2024-02-26T00:20:50;99677.25;;;4.41;100.00
15308;BME280;7755;52.208;6.964;2024-02-26T00:25:30;99695.03;;;4.42;100.00
15308;BME280;7755;52.208;6.964;2024-02-26T00:30:09;99702.88;;;4.44;100.00
15308;BME280;7755;52.208;6.964;2024-02-26T00:34:47;99704.97;;;4.42;100.00
15308;BME280;7755;52.208;6.964;2024-02-26T00:39:27;99701.66;;;4.39;100.00
15308;BME280;7755;52.208;6.964;2024-02-26T00:44:06;99713.94;;;4.35;100.00
15308;BME280;7755;52.208;6.964;2024-02-26T00:48:44;99705.25;;;4.33;100.00
15308;BME280;7755;52.208;6.964;2024-02-26T00:53:22;99696.00;;;4.29;100.00
15308;BME280;7755;52.208;6.964;2024-02-26T00:58:02;99698.09;;;4.27;100.00
15308;BME280;7755;52.208;6.964;2024-02-26T01:02:41;99699.13;;;4.26;100.00
15308;BME280;7755;52.208;6.964;2024-02-26T01:07:19;99708.03;;;4.27;100.00
15308;BME280;7755;52.208;6.964;2024-02-26T01:11:57;99695.84;;;4.24;100.00
15308;BME280;7755;52.208;6.964;2024-02-26T01:16:37;99694.44;;;4.22;100.00
15308;BME280;7755;52.208;6.964;2024-02-26T01:21:16;99699.06;;;4.15;100.00
15308;BME280;7755;52.208;6.964;2024-02-26T01:25:56;99696.56;;;4.13;100.00
15308;BME280;7755;52.208;6.964;2024-02-26T01:30:27;99692.25;;;4.12;100.00
15308;BME280;7755;52.208;6.964;2024-02-26T01:35:08;99694.94;;;4.12;100.00
15308;BME280;7755;52.208;6.964;2024-02-26T01:39:48;99685.81;;;4.13;100.00
15308;BME280;7755;52.208;6.964;2024-02-26T01:44:26;99690.19;;;4.14;100.00
15308;BME280;7755;52.208;6.964;2024-02-26T01:49:08;99690.38;;;4.13;100.00
15308;BME280;7755;52.208;6.964;2024-02-26T01:53:49;99690.59;;;4.11;100.00
15308;BME280;7755;52.208;6.964;2024-02-26T01:58:28;99689.34;;;4.14;100.00
15308;BME280;7755;52.208;6.964;2024-02-26T02:03:06;99689.13;;;4.15;100.00
15308;BME280;7755;52.208;6.964;2024-02-26T02:07:44;99689.94;;;4.16;100.00
15308;BME280;7755;52.208;6.964;2024-02-26T02:12:24;99699.44;;;4.18;100.00
15308;BME280;7755;52.208;6.964;2024-02-26T02:17:05;99703.75;;;4.19;100.00
15308;BME280;7755;52.208;6.964;2024-02-26T02:21:45;99705.63;;;4.19;100.00
15308;BME280;7755;52.208;6.964;2024-02-26T02:26:24;99707.50;;;4.18;100.00
15308;BME280;7755;52.208;6.964;2024-02-26T02:31:02;99723.63;;;4.18;100.00
15308;BME280;7755;52.208;6.964;2024-02-26T02:35:40;99724.47;;;4.19;100.00
15308;BME280;7755;52.208;6.964;2024-02-26T02:40:22;99728.78;;;4.20;100.00
15308;BME280;7755;52.208;6.964;2024-02-26T02:45:01;99735.38;;;4.24;100.00
15308;BME280;7755;52.208;6.964;2024-02-26T02:49:39;99731.41;;;4.26;100.00
15308;BME280;7755;52.208;6.964;2024-02-26T02:54:17;99737.19;;;4.30;100.00
15308;BME280;7755;52.208;6.964;2024-02-26T02:58:57;99732.16;;;4.33;100.00
15308;BME280;7755;52.208;6.964;2024-02-26T03:03:36;99738.16;;;4.35;100.00
15308;BME280;7755;52.208;6.964;2024-02-26T03:08:14;99753.03;;;4.38;100.00
15308;BME280;7755;52.208;6.964;2024-02-26T03:12:53;99750.50;;;4.43;100.00
15308;BME280;7755;52.208;6.964;2024-02-26T03:17:35;99746.53;;;4.46;100.00
15308;BME280;7755;52.208;6.964;2024-02-26T03:22:14;99750.03;;;4.46;100.00
15308;BME280;7755;52.208;6.964;2024-02-26T03:26:52;99754.59;;;4.46;100.00
15308;BME280;7755;52.208;6.964;2024-02-26T03:31:30;99758.94;;;4.47;100.00
15308;BME280;7755;52.208;6.964;2024-02-26T03:36:10;99764.69;;;4.50;100.00
15308;BME280;7755;52.208;6.964;2024-02-26T03:40:51;99762.81;;;4.51;100.00
15308;BME280;7755;52.208;6.964;2024-02-26T03:45:30;99760.97;;;4.51;100.00
15308;BME280;7755;52.208;6.964;2024-02-26T03:50:08;99770.91;;;4.51;100.00
15308;BME280;7755;52.208;6.964;2024-02-26T03:54:50;99761.34;;;4.55;100.00
15308;BME280;7755;52.208;6.964;2024-02-26T03:59:28;99765.06;;;4.54;100.00
15308;BME280;7755;52.208;6.964;2024-02-26T04:04:06;99773.75;;;4.56;100.00
15308;BME280;7755;52.208;6.964;2024-02-26T04:08:45;99778.09;;;4.57;100.00
15308;BME280;7755;52.208;6.964;2024-02-26T04:13:25;99784.06;;;4.59;100.00
15308;BME280;7755;52.208;6.964;2024-02-26T04:18:04;99784.81;;;4.66;100.00
15308;BME280;7755;52.208;6.964;2024-02-26T04:22:43;99790.00;;;4.68;100.00
15308;BME280;7755;52.208;6.964;2024-02-26T04:27:22;99796.56;;;4.72;100.00
15308;BME280;7755;52.208;6.964;2024-02-26T04:32:03;99795.06;;;4.76;100.00
15308;BME280;7755;52.208;6.964;2024-02-26T04:36:41;99795.66;;;4.78;100.00
15308;BME280;7755;52.208;6.964;2024-02-26T04:41:20;99794.38;;;4.80;100.00
15308;BME280;7755;52.208;6.964;2024-02-26T04:45:58;99800.81;;;4.79;100.00
15308;BME280;7755;52.208;6.964;2024-02-26T04:50:39;99800.56;;;4.81;100.00
15308;BME280;7755;52.208;6.964;2024-02-26T04:55:18;99804.47;;;4.85;100.00
15308;BME280;7755;52.208;6.964;2024-02-26T04:59:55;99813.16;;;4.87;100.00
15308;BME280;7755;52.208;6.964;2024-02-26T05:04:35;99811.28;;;4.87;100.00
15308;BME280;7755;52.208;6.964;2024-02-26T05:09:15;99814.59;;;4.89;100.00
15308;BME280;7755;52.208;6.964;2024-02-26T05:13:54;99817.88;;;4.91;100.00
15308;BME280;7755;52.208;6.964;2024-02-26T05:18:31;99815.75;;;4.93;100.00
15308;BME280;7755;52.208;6.964;2024-02-26T05:23:10;99818.03;;;4.97;100.00
15308;BME280;7755;52.208;6.964;2024-02-26T05:27:50;99829.63;;;4.97;100.00
15308;BME280;7755;52.208;6.964;2024-02-26T05:32:28;99844.06;;;5.03;100.00
15308;BME280;7755;52.208;6.964;2024-02-26T05:37:07;99839.50;;;5.03;100.00
15308;BME280;7755;52.208;6.964;2024-02-26T05:41:45;99853.53;;;5.05;100.00
15308;BME280;7755;52.208;6.964;2024-02-26T05:46:25;99846.28;;;5.06;100.00
15308;BME280;7755;52.208;6.964;2024-02-26T05:51:04;99844.41;;;5.06;100.00
15308;BME280;7755;52.208;6.964;2024-02-26T05:55:42;99849.56;;;5.08;100.00
15308;BME280;7755;52.208;6.964;2024-02-26T06:00:20;99858.69;;;5.07;100.00
15308;BME280;7755;52.208;6.964;2024-02-26T06:05:01;99862.00;;;5.09;100.00
15308;BME280;7755;52.208;6.964;2024-02-26T06:09:40;99868.81;;;5.11;100.00
15308;BME280;7755;52.208;6.964;2024-02-26T06:14:17;99867.53;;;5.14;100.00
15308;BME280;7755;52.208;6.964;2024-02-26T06:18:55;99871.91;;;5.15;100.00
15308;BME280;7755;52.208;6.964;2024-02-26T06:23:37;99868.16;;;5.16;100.00
15308;BME280;7755;52.208;6.964;2024-02-26T06:28:15;99876.22;;;5.16;100.00
15308;BME280;7755;52.208;6.964;2024-02-26T06:32:53;99882.66;;;5.15;100.00
15308;BME280;7755;52.208;6.964;2024-02-26T06:37:31;99893.22;;;5.16;100.00
15308;BME280;7755;52.208;6.964;2024-02-26T06:42:12;99878.94;;;5.16;100.00
15308;BME280;7755;52.208;6.964;2024-02-26T06:46:50;99878.47;;;5.19;100.00
15308;BME280;7755;52.208;6.964;2024-02-26T06:51:29;99876.34;;;5.21;100.00
15308;BME280;7755;52.208;6.964;2024-02-26T06:56:08;99890.22;;;5.25;100.00
15308;BME280;7755;52.208;6.964;2024-02-26T07:00:48;99902.19;;;5.29;100.00
15308;BME280;7755;52.208;6.964;2024-02-26T07:05:26;99895.97;;;5.28;100.00
15308;BME280;7755;52.208;6.964;2024-02-26T07:10:05;99900.31;;;5.29;100.00
15308;BME280;7755;52.208;6.964;2024-02-26T07:14:43;99909.81;;;5.32;100.00
15308;BME280;7755;52.208;6.964;2024-02-26T07:19:24;99909.59;;;5.33;100.00
15308;BME280;7755;52.208;6.964;2024-02-26T07:24:03;99909.34;;;5.35;100.00
15308;BME280;7755;52.208;6.964;2024-02-26T07:28:40;99917.81;;;5.38;100.00
15308;BME280;7755;52.208;6.964;2024-02-26T07:33:18;99911.97;;;5.41;100.00
15308;BME280;7755;52.208;6.964;2024-02-26T07:37:59;99925.25;;;5.43;100.00
15308;BME280;7755;52.208;6.964;2024-02-26T07:42:52;99917.75;;;5.45;100.00
15308;BME280;7755;52.208;6.964;2024-02-26T07:47:25;99919.63;;;5.44;100.00
15308;BME280;7755;52.208;6.964;2024-02-26T07:52:04;99931.81;;;5.47;100.00
15308;BME280;7755;52.208;6.964;2024-02-26T07:56:45;99934.50;;;5.47;100.00
15308;BME280;7755;52.208;6.964;2024-02-26T08:01:23;99940.72;;;5.47;100.00
15308;BME280;7755;52.208;6.964;2024-02-26T08:06:04;99936.97;;;5.48;100.00
15308;BME280;7755;52.208;6.964;2024-02-26T08:10:43;99946.50;;;5.51;100.00
15308;BME280;7755;52.208;6.964;2024-02-26T08:15:23;99956.00;;;5.54;100.00
15308;BME280;7755;52.208;6.964;2024-02-26T08:20:03;99960.34;;;5.55;100.00
15308;BME280;7755;52.208;6.964;2024-02-26T08:24:42;99954.13;;;5.54;100.00
15308;BME280;7755;52.208;6.964;2024-02-26T08:29:20;99953.91;;;5.56;100.00
15308;BME280;7755;52.208;6.964;2024-02-26T08:34:00;99952.25;;;5.55;100.00
15308;BME280;7755;52.208;6.964;2024-02-26T08:38:39;99962.22;;;5.54;100.00
15308;BME280;7755;52.208;6.964;2024-02-26T08:43:17;99976.31;;;5.56;100.00
15308;BME280;7755;52.208;6.964;2024-02-26T08:47:55;99972.31;;;5.59;100.00
15308;BME280;7755;52.208;6.964;2024-02-26T08:52:36;99991.59;;;5.62;100.00
15308;BME280;7755;52.208;6.964;2024-02-26T08:57:17;99987.22;;;5.61;100.00
15308;BME280;7755;52.208;6.964;2024-02-26T09:01:55;100005.44;;;5.66;100.00
15308;BME280;7755;52.208;6.964;2024-02-26T09:06:33;100007.91;;;5.67;100.00
15308;BME280;7755;52.208;6.964;2024-02-26T09:11:14;100017.63;;;5.68;100.00
15308;BME280;7755;52.208;6.964;2024-02-26T09:15:52;100016.97;;;5.73;100.00
15308;BME280;7755;52.208;6.964;2024-02-26T09:20:31;100011.72;;;5.78;100.00
15308;BME280;7755;52.208;6.964;2024-02-26T09:25:09;100022.28;;;5.80;100.00
15308;BME280;7755;52.208;6.964;2024-02-26T09:29:50;100033.06;;;5.80;100.00
15308;BME280;7755;52.208;6.964;2024-02-26T09:34:28;100044.44;;;5.82;100.00
15308;BME280;7755;52.208;6.964;2024-02-26T09:39:07;100048.59;;;5.84;100.00
15308;BME280;7755;52.208;6.964;2024-02-26T09:43:55;100050.66;;;5.82;100.00
15308;BME280;7755;52.208;6.964;2024-02-26T09:48:37;100054.34;;;5.88;100.00
15308;BME280;7755;52.208;6.964;2024-02-26T09:53:17;100062.22;;;5.89;100.00
15308;BME280;7755;52.208;6.964;2024-02-26T09:57:56;100075.50;;;5.91;100.00
15308;BME280;7755;52.208;6.964;2024-02-26T10:02:36;100083.31;;;5.99;100.00
15308;BME280;7755;52.208;6.964;2024-02-26T10:07:20;100085.09;;;6.05;100.00
15308;BME280;7755;52.208;6.964;2024-02-26T10:11:58;100095.00;;;6.11;100.00
15308;BME280;7755;52.208;6.964;2024-02-26T10:16:37;100109.22;;;6.18;100.00
15308;BME280;7755;52.208;6.964;2024-02-26T10:21:08;100124.53;;;6.24;100.00
15308;BME280;7755;52.208;6.964;2024-02-26T10:25:55;100126.31;;;6.31;100.00
15308;BME280;7755;52.208;6.964;2024-02-26T10:30:36;100131.47;;;6.32;100.00
15308;BME280;7755;52.208;6.964;2024-02-26T10:35:16;100136.06;;;6.32;100.00
15308;BME280;7755;52.208;6.964;2024-02-26T10:39:56;100136.72;;;6.27;100.00
15308;BME280;7755;52.208;6.964;2024-02-26T10:44:40;100136.97;;;6.25;100.00
15308;BME280;7755;52.208;6.964;2024-02-26T10:49:17;100145.06;;;6.25;100.00
15308;BME280;7755;52.208;6.964;2024-02-26T10:53:57;100151.50;;;6.24;100.00
15308;BME280;7755;52.208;6.964;2024-02-26T10:58:39;100161.69;;;6.22;100.00
15308;BME280;7755;52.208;6.964;2024-02-26T11:03:21;100162.50;;;6.23;100.00
15308;BME280;7755;52.208;6.964;2024-02-26T11:08:02;100169.19;;;6.20;100.00
15308;BME280;7755;52.208;6.964;2024-02-26T11:12:41;100171.47;;;6.23;100.00
15308;BME280;7755;52.208;6.964;2024-02-26T11:17:21;100174.38;;;6.22;100.00
15308;BME280;7755;52.208;6.964;2024-02-26T11:22:03;100165.44;;;6.21;100.00
15308;BME280;7755;52.208;6.964;2024-02-26T11:26:49;100179.69;;;6.28;100.00
15308;BME280;7755;52.208;6.964;2024-02-26T11:31:30;100184.88;;;6.30;100.00
15308;BME280;7755;52.208;6.964;2024-02-26T11:36:08;100178.19;;;6.33;100.00
15308;BME280;7755;52.208;6.964;2024-02-26T11:40:50;100174.44;;;6.34;100.00
15308;BME280;7755;52.208;6.964;2024-02-26T11:45:56;100185.25;;;6.34;100.00
15308;BME280;7755;52.208;6.964;2024-02-26T11:50:35;100182.94;;;6.37;100.00
15308;BME280;7755;52.208;6.964;2024-02-26T11:55:31;100188.34;;;6.37;100.00
15308;BME280;7755;52.208;6.964;2024-02-26T12:00:16;100191.38;;;6.41;100.00
15308;BME280;7755;52.208;6.964;2024-02-26T12:04:56;100196.56;;;6.42;100.00
15308;BME280;7755;52.208;6.964;2024-02-26T12:09:37;100199.41;;;6.47;100.00
15308;BME280;7755;52.208;6.964;2024-02-26T12:14:18;100209.97;;;6.49;100.00
15308;BME280;7755;52.208;6.964;2024-02-26T12:18:59;100211.19;;;6.53;100.00
15308;BME280;7755;52.208;6.964;2024-02-26T12:23:37;100219.66;;;6.56;100.00
15308;BME280;7755;52.208;6.964;2024-02-26T12:28:16;100216.50;;;6.60;100.00
15308;BME280;7755;52.208;6.964;2024-02-26T12:32:57;100224.16;;;6.63;100.00
15308;BME280;7755;52.208;6.964;2024-02-26T12:37:39;100227.91;;;6.62;100.00
15308;BME280;7755;52.208;6.964;2024-02-26T12:42:20;100229.34;;;6.64;100.00
15308;BME280;7755;52.208;6.964;2024-02-26T12:47:00;100231.81;;;6.66;100.00
15308;BME280;7755;52.208;6.964;2024-02-26T12:51:40;100241.34;;;6.68;100.00
15308;BME280;7755;52.208;6.964;2024-02-26T12:56:21;100246.88;;;6.73;100.00
15308;BME280;7755;52.208;6.964;2024-02-26T13:01:00;100255.97;;;6.79;100.00
15308;BME280;7755;52.208;6.964;2024-02-26T13:05:39;100264.00;;;6.86;100.00
15308;BME280;7755;52.208;6.964;2024-02-26T13:10:18;100266.81;;;6.91;100.00
15308;BME280;7755;52.208;6.964;2024-02-26T13:15:03;100278.84;;;6.95;100.00
15308;BME280;7755;52.208;6.964;2024-02-26T13:19:50;100285.06;;;6.95;100.00
15308;BME280;7755;52.208;6.964;2024-02-26T13:24:28;100281.94;;;6.98;100.00
15308;BME280;7755;52.208;6.964;2024-02-26T13:29:06;100283.81;;;6.98;100.00
15308;BME280;7755;52.208;6.964;2024-02-26T13:33:41;100286.50;;;6.98;100.00
15308;BME280;7755;52.208;6.964;2024-02-26T13:38:22;100289.81;;;7.00;100.00
15308;BME280;7755;52.208;6.964;2024-02-26T13:43:03;100276.94;;;6.95;100.00
15308;BME280;7755;52.208;6.964;2024-02-26T13:47:41;100281.53;;;6.95;100.00
15308;BME280;7755;52.208;6.964;2024-02-26T13:52:32;100295.53;;;6.92;100.00
15308;BME280;7755;52.208;6.964;2024-02-26T13:57:12;100296.47;;;6.97;100.00
15308;BME280;7755;52.208;6.964;2024-02-26T14:01:49;100304.56;;;6.97;100.00
15308;BME280;7755;52.208;6.964;2024-02-26T14:06:28;100310.84;;;6.98;100.00
15308;BME280;7755;52.208;6.964;2024-02-26T14:11:08;100318.25;;;7.02;100.00
15308;BME280;7755;52.208;6.964;2024-02-26T14:15:46;100322.16;;;7.06;100.00
15308;BME280;7755;52.208;6.964;2024-02-26T14:20:25;100336.56;;;7.00;100.00
15308;BME280;7755;52.208;6.964;2024-02-26T14:25:04;100341.91;;;7.07;100.00
15308;BME280;7755;52.208;6.964;2024-02-26T14:29:45;100357.28;;;7.06;100.00
15308;BME280;7755;52.208;6.964;2024-02-26T14:34:24;100364.19;;;7.02;100.00
15308;BME280;7755;52.208;6.964;2024-02-26T14:39:01;100370.19;;;7.04;100.00
15308;BME280;7755;52.208;6.964;2024-02-26T14:43:41;100376.81;;;7.08;100.00
15308;BME280;7755;52.208;6.964;2024-02-26T14:48:22;100381.31;;;7.15;100.00
15308;BME280;7755;52.208;6.964;2024-02-26T14:53:00;100392.78;;;7.10;100.00
15308;BME280;7755;52.208;6.964;2024-02-26T14:57:38;100409.25;;;7.08;100.00
15308;BME280;7755;52.208;6.964;2024-02-26T15:02:17;100399.03;;;7.10;100.00
15308;BME280;7755;52.208;6.964;2024-02-26T15:06:57;100417.59;;;7.07;100.00
15308;BME280;7755;52.208;6.964;2024-02-26T15:11:38;100422.16;;;7.06;100.00
15308;BME280;7755;52.208;6.964;2024-02-26T15:16:19;100427.56;;;7.06;100.00
15308;BME280;7755;52.208;6.964;2024-02-26T15:20:57;100422.59;;;7.03;100.00
15308;BME280;7755;52.208;6.964;2024-02-26T15:25:38;100425.16;;;6.98;100.00
15308;BME280;7755;52.208;6.964;2024-02-26T15:30:17;100417.72;;;6.94;100.00
15308;BME280;7755;52.208;6.964;2024-02-26T15:34:56;100422.53;;;6.92;100.00
15308;BME280;7755;52.208;6.964;2024-02-26T15:39:33;100433.19;;;6.87;100.00
15308;BME280;7755;52.208;6.964;2024-02-26T15:44:14;100441.13;;;6.81;100.00
15308;BME280;7755;52.208;6.964;2024-02-26T15:48:52;100442.16;;;6.80;100.00
15308;BME280;7755;52.208;6.964;2024-02-26T15:53:24;100453.22;;;6.79;100.00
15308;BME280;7755;52.208;6.964;2024-02-26T15:58:03;100457.78;;;6.78;100.00
15308;BME280;7755;52.208;6.964;2024-02-26T16:02:47;100474.19;;;6.77;100.00
15308;BME280;7755;52.208;6.964;2024-02-26T16:07:30;100476.91;;;6.77;100.00
15308;BME280;7755;52.208;6.964;2024-02-26T16:12:15;100489.38;;;6.78;100.00
15308;BME280;7755;52.208;6.964;2024-02-26T16:17:01;100506.47;;;6.72;100.00
15308;BME280;7755;52.208;6.964;2024-02-26T16:21:44;100502.13;;;6.71;100.00
15308;BME280;7755;52.208;6.964;2024-02-26T16:26:22;100513.34;;;6.68;100.00
15308;BME280;7755;52.208;6.964;2024-02-26T16:31:00;100529.19;;;6.64;100.00
15308;BME280;7755;52.208;6.964;2024-02-26T16:35:38;100529.84;;;6.60;100.00
15308;BME280;7755;52.208;6.964;2024-02-26T16:40:19;100539.03;;;6.52;100.00
15308;BME280;7755;52.208;6.964;2024-02-26T16:44:57;100552.34;;;6.47;100.00
15308;BME280;7755;52.208;6.964;2024-02-26T16:49:36;100562.56;;;6.45;100.00
15308;BME280;7755;52.208;6.964;2024-02-26T16:54:13;100566.50;;;6.42;100.00
15308;BME280;7755;52.208;6.964;2024-02-26T16:58:54;100577.13;;;6.37;100.00
15308;BME280;7755;52.208;6.964;2024-02-26T17:03:34;100583.19;;;6.33;100.00
15308;BME280;7755;52.208;6.964;2024-02-26T17:08:11;100589.84;;;6.30;100.00
15308;BME280;7755;52.208;6.964;2024-02-26T17:12:49;100603.16;;;6.25;100.00
15308;BME280;7755;52.208;6.964;2024-02-26T17:17:30;100612.50;;;6.22;100.00
15308;BME280;7755;52.208;6.964;2024-02-26T17:22:08;100617.28;;;6.20;100.00
15308;BME280;7755;52.208;6.964;2024-02-26T17:26:46;100623.94;;;6.18;100.00
15308;BME280;7755;52.208;6.964;2024-02-26T17:31:24;100629.97;;;6.13;100.00
15308;BME280;7755;52.208;6.964;2024-02-26T17:36:08;100642.22;;;6.09;100.00
15308;BME280;7755;52.208;6.964;2024-02-26T17:40:47;100652.84;;;6.04;100.00
15308;BME280;7755;52.208;6.964;2024-02-26T17:45:25;100655.97;;;6.01;100.00
15308;BME280;7755;52.208;6.964;2024-02-26T17:50:05;100657.03;;;5.93;100.00
15308;BME280;7755;52.208;6.964;2024-02-26T17:54:48;100666.16;;;5.92;100.00
15308;BME280;7755;52.208;6.964;2024-02-26T17:59:26;100682.75;;;5.89;100.00
15308;BME280;7755;52.208;6.964;2024-02-26T18:04:04;100681.28;;;5.87;100.00
15308;BME280;7755;52.208;6.964;2024-02-26T18:08:42;100695.84;;;5.79;100.00
15308;BME280;7755;52.208;6.964;2024-02-26T18:13:23;100703.72;;;5.74;100.00
15308;BME280;7755;52.208;6.964;2024-02-26T18:18:02;100711.41;;;5.70;100.00
15308;BME280;7755;52.208;6.964;2024-02-26T18:22:40;100713.28;;;5.63;100.00
15308;BME280;7755;52.208;6.964;2024-02-26T18:27:18;100727.38;;;5.59;100.00
15308;BME280;7755;52.208;6.964;2024-02-26T18:32:00;100739.59;;;5.55;100.00
15308;BME280;7755;52.208;6.964;2024-02-26T18:36:42;100742.72;;;5.52;100.00
15308;BME280;7755;52.208;6.964;2024-02-26T18:41:20;100757.66;;;5.47;100.00
15308;BME280;7755;52.208;6.964;2024-02-26T18:45:58;100748.31;;;5.43;100.00
15308;BME280;7755;52.208;6.964;2024-02-26T18:50:39;100763.66;;;5.36;100.00
15308;BME280;7755;52.208;6.964;2024-02-26T18:55:17;100773.19;;;5.32;100.00
15308;BME280;7755;52.208;6.964;2024-02-26T18:59:55;100772.78;;;5.29;100.00
15308;BME280;7755;52.208;6.964;2024-02-26T19:04:34;100782.50;;;5.23;100.00
15308;BME280;7755;52.208;6.964;2024-02-26T19:09:15;100788.28;;;5.20;100.00
15308;BME280;7755;52.208;6.964;2024-02-26T19:13:53;100797.63;;;5.17;100.00
15308;BME280;7755;52.208;6.964;2024-02-26T19:18:32;100797.19;;;5.14;100.00
15308;BME280;7755;52.208;6.964;2024-02-26T19:23:10;100816.03;;;5.14;100.00
15308;BME280;7755;52.208;6.964;2024-02-26T19:27:51;100818.56;;;5.15;100.00
15308;BME280;7755;52.208;6.964;2024-02-26T19:32:30;100827.84;;;5.13;100.00
15308;BME280;7755;52.208;6.964;2024-02-26T19:37:07;100826.66;;;5.15;100.00
15308;BME280;7755;52.208;6.964;2024-02-26T19:41:45;100823.13;;;5.15;100.00
15308;BME280;7755;52.208;6.964;2024-02-26T19:46:26;100832.88;;;5.16;100.00
15308;BME280;7755;52.208;6.964;2024-02-26T19:51:06;100843.84;;;5.21;100.00
15308;BME280;7755;52.208;6.964;2024-02-26T19:55:44;100839.31;;;5.22;100.00
15308;BME280;7755;52.208;6.964;2024-02-26T20:00:27;100841.16;;;5.21;100.00
15308;BME280;7755;52.208;6.964;2024-02-26T20:05:08;100857.16;;;5.23;100.00
15308;BME280;7755;52.208;6.964;2024-02-26T20:09:40;100869.59;;;5.24;100.00
15308;BME280;7755;52.208;6.964;2024-02-26T20:14:13;100865.03;;;5.24;100.00
15308;BME280;7755;52.208;6.964;2024-02-26T20:18:50;100872.69;;;5.27;100.00
15308;BME280;7755;52.208;6.964;2024-02-26T20:23:31;100882.44;;;5.28;100.00
15308;BME280;7755;52.208;6.964;2024-02-26T20:28:10;100892.38;;;5.28;100.00
15308;BME280;7755;52.208;6.964;2024-02-26T20:32:48;100894.25;;;5.27;100.00
15308;BME280;7755;52.208;6.964;2024-02-26T20:37:27;100909.59;;;5.27;100.00
15308;BME280;7755;52.208;6.964;2024-02-26T20:42:08;100916.66;;;5.28;100.00
15308;BME280;7755;52.208;6.964;2024-02-26T20:46:40;100923.72;;;5.29;100.00
15308;BME280;7755;52.208;6.964;2024-02-26T20:51:20;100931.41;;;5.32;100.00
15308;BME280;7755;52.208;6.964;2024-02-26T20:55:59;100939.28;;;5.33;100.00
15308;BME280;7755;52.208;6.964;2024-02-26T21:00:40;100948.41;;;5.32;100.00
15308;BME280;7755;52.208;6.964;2024-02-26T21:05:18;100955.03;;;5.30;100.00
15308;BME280;7755;52.208;6.964;2024-02-26T21:09:57;100966.25;;;5.33;100.00
15308;BME280;7755;52.208;6.964;2024-02-26T21:14:36;100964.59;;;5.32;100.00
15308;BME280;7755;52.208;6.964;2024-02-26T21:19:17;100981.78;;;5.31;100.00
15308;BME280;7755;52.208;6.964;2024-02-26T21:23:56;100987.81;;;5.33;100.00
15308;BME280;7755;52.208;6.964;2024-02-26T21:28:33;100991.53;;;5.32;100.00
15308;BME280;7755;52.208;6.964;2024-02-26T21:33:12;101016.44;;;5.34;100.00
15308;BME280;7755;52.208;6.964;2024-02-26T21:37:53;101010.88;;;5.36;100.00
15308;BME280;7755;52.208;6.964;2024-02-26T21:42:31;101019.56;;;5.38;100.00
15308;BME280;7755;52.208;6.964;2024-02-26T21:47:10;101023.56;;;5.42;100.00
15308;BME280;7755;52.208;6.964;2024-02-26T21:51:48;101032.47;;;5.42;100.00
15308;BME280;7755;52.208;6.964;2024-02-26T21:56:29;101039.31;;;5.45;100.00
15308;BME280;7755;52.208;6.964;2024-02-26T22:01:08;101046.56;;;5.44;100.00
15308;BME280;7755;52.208;6.964;2024-02-26T22:05:46;101058.00;;;5.46;100.00
15308;BME280;7755;52.208;6.964;2024-02-26T22:10:24;101061.53;;;5.47;100.00
15308;BME280;7755;52.208;6.964;2024-02-26T22:15:05;101063.38;;;5.46;100.00
15308;BME280;7755;52.208;6.964;2024-02-26T22:19:43;101082.06;;;5.48;100.00
15308;BME280;7755;52.208;6.964;2024-02-26T22:24:21;101078.34;;;5.49;100.00
15308;BME280;7755;52.208;6.964;2024-02-26T22:29:01;101076.03;;;5.46;100.00
15308;BME280;7755;52.208;6.964;2024-02-26T22:33:42;101088.91;;;5.44;100.00
15308;BME280;7755;52.208;6.964;2024-02-26T22:38:20;101087.66;;;5.46;100.00
15308;BME280;7755;52.208;6.964;2024-02-26T22:42:52;101082.88;;;5.48;100.00
15308;BME280;7755;52.208;6.964;2024-02-26T22:47:30;101077.69;;;5.47;100.00
15308;BME280;7755;52.208;6.964;2024-02-26T22:52:12;101078.94;;;5.44;100.00
15308;BME280;7755;52.208;6.964;2024-02-26T22:56:50;101091.38;;;5.45;100.00
15308;BME280;7755;52.208;6.964;2024-02-26T23:01:28;101086.41;;;5.42;100.00
15308;BME280;7755;52.208;6.964;2024-02-26T23:06:07;101090.72;;;5.37;100.00
15308;BME280;7755;52.208;6.964;2024-02-26T23:10:47;101089.22;;;5.34;100.00
15308;BME280;7755;52.208;6.964;2024-02-26T23:15:26;101088.81;;;5.31;100.00
15308;BME280;7755;52.208;6.964;2024-02-26T23:20:06;101102.84;;;5.26;100.00
15308;BME280;7755;52.208;6.964;2024-02-26T23:24:44;101098.91;;;5.22;100.00
15308;BME280;7755;52.208;6.964;2024-02-26T23:29:25;101112.31;;;5.15;100.00
15308;BME280;7755;52.208;6.964;2024-02-26T23:34:03;101117.47;;;5.10;100.00
15308;BME280;7755;52.208;6.964;2024-02-26T23:38:41;101125.44;;;4.97;100.00
15308;BME280;7755;52.208;6.964;2024-02-26T23:43:21;101127.22;;;4.90;100.00
15308;BME280;7755;52.208;6.964;2024-02-26T23:48:03;101122.97;;;4.81;100.00
15308;BME280;7755;52.208;6.964;2024-02-26T23:52:43;101127.66;;;4.72;100.00
15308;BME280;7755;52.208;6.964;2024-02-26T23:57:21;101133.66;;;4.68;100.00
